Time;durP1;ratioP1;P1;durP2;ratioP2;P2;SDS_P1;SDS_P2;PMS_P1;PMS_P2;Temp;Humidity;BMP_temperature;BMP_pressure;BME280_temperature;BME280_humidity;BME280_pressure;Samples;Min_cycle;Max_cycle;Signal;HPM_P1;HPM_P2
2020/12/15 00:00:40;;;;;;;0.40;0.32;;;14.80;74.30;;;;;;5074275;28;20020;-44
2020/12/15 00:03:06;;;;;;;0.50;0.40;;;14.80;74.50;;;;;;5097733;28;20028;-46
2020/12/15 00:05:33;;;;;;;0.50;0.50;;;14.80;74.30;;;;;;5102766;28;20809;-44
2020/12/15 00:07:59;;;;;;;0.70;0.60;;;14.80;74.50;;;;;;5082661;28;20040;-45
2020/12/15 00:10:25;;;;;;;0.88;0.60;;;14.70;74.40;;;;;;5082308;28;20036;-44
2020/12/15 00:12:51;;;;;;;0.50;0.50;;;14.70;74.40;;;;;;5081926;28;20024;-44
2020/12/15 00:15:17;;;;;;;0.90;0.45;;;14.70;74.40;;;;;;5095239;28;20020;-46
2020/12/15 00:17:43;;;;;;;0.50;0.50;;;14.70;74.50;;;;;;5115901;28;20043;-45
2020/12/15 00:20:10;;;;;;;1.92;0.60;;;14.60;74.50;;;;;;5135724;28;20467;-44
2020/12/15 00:22:36;;;;;;;0.70;0.70;;;14.60;74.40;;;;;;5143340;28;20025;-44
2020/12/15 00:25:03;;;;;;;0.80;0.52;;;14.60;74.40;;;;;;5113691;28;20189;-44
2020/12/15 00:27:29;;;;;;;0.47;0.47;;;14.60;74.30;;;;;;5122594;28;20165;-45
2020/12/15 00:29:55;;;;;;;0.80;0.60;;;14.60;74.50;;;;;;5122699;28;20050;-44
2020/12/15 00:32:22;;;;;;;0.45;0.43;;;14.50;74.50;;;;;;5121773;28;20130;-45
2020/12/15 00:34:48;;;;;;;0.55;0.55;;;14.50;74.50;;;;;;5101332;28;20051;-44
2020/12/15 00:37:14;;;;;;;0.70;0.65;;;14.50;74.50;;;;;;5126693;28;20042;-44
2020/12/15 00:39:40;;;;;;;0.52;0.50;;;14.50;74.40;;;;;;5101298;28;20551;-46
2020/12/15 00:42:06;;;;;;;0.60;0.60;;;14.40;74.40;;;;;;5118424;28;20035;-45
2020/12/15 00:44:35;;;;;;;0.82;0.75;;;14.40;74.50;;;;;;5121809;28;20019;-45
2020/12/15 00:47:03;;;;;;;0.60;0.57;;;14.40;74.50;;;;;;5132587;27;20071;-45
2020/12/15 00:49:29;;;;;;;0.70;0.60;;;14.40;74.60;;;;;;5120247;27;20031;-44
2020/12/15 00:51:55;;;;;;;0.90;0.75;;;14.40;74.60;;;;;;5127925;27;20035;-45
2020/12/15 00:54:22;;;;;;;0.70;0.70;;;14.40;75.30;;;;;;5125329;27;20832;-45
2020/12/15 00:56:48;;;;;;;0.60;0.60;;;14.30;74.60;;;;;;5133573;27;20062;-44
2020/12/15 00:59:14;;;;;;;1.13;0.80;;;14.30;74.60;;;;;;5129158;27;20024;-45
2020/12/15 01:01:40;;;;;;;0.77;0.77;;;14.30;74.60;;;;;;5121451;27;20023;-44
2020/12/15 01:04:06;;;;;;;0.68;0.68;;;14.30;74.70;;;;;;5105219;28;20110;-45
2020/12/15 01:06:32;;;;;;;0.90;0.63;;;14.20;74.70;;;;;;5113258;28;20031;-44
2020/12/15 01:08:59;;;;;;;1.02;0.63;;;14.20;74.60;;;;;;5126039;28;20103;-44
2020/12/15 01:11:31;;;;;;;0.80;0.80;;;14.20;74.70;;;;;;5125938;28;20020;-44
2020/12/15 01:13:58;;;;;;;1.02;0.80;;;14.20;74.70;;;;;;5107989;28;20030;-44
2020/12/15 01:16:24;;;;;;;0.70;0.60;;;14.20;74.60;;;;;;5123520;28;20046;-45
2020/12/15 01:18:50;;;;;;;0.77;0.70;;;14.10;74.60;;;;;;5105221;28;20065;-45
2020/12/15 01:21:24;;;;;;;0.80;0.70;;;14.10;74.70;;;;;;5105543;28;20048;-44
2020/12/15 01:23:50;;;;;;;1.35;0.65;;;14.10;74.70;;;;;;5104842;28;20032;-45
2020/12/15 01:26:16;;;;;;;0.75;0.75;;;14.10;74.70;;;;;;5086810;28;20036;-44
2020/12/15 01:28:42;;;;;;;0.82;0.80;;;14.00;74.70;;;;;;5105221;28;20044;-45
2020/12/15 01:31:08;;;;;;;1.00;0.90;;;14.00;74.70;;;;;;5105152;28;20052;-44
2020/12/15 01:33:34;;;;;;;0.65;0.60;;;14.00;74.60;;;;;;5095244;28;20026;-45
2020/12/15 01:36:01;;;;;;;1.00;0.90;;;14.00;74.70;;;;;;5095685;28;20132;-44
2020/12/15 01:38:27;;;;;;;0.70;0.60;;;14.00;74.80;;;;;;5093015;28;20035;-44
2020/12/15 01:40:53;;;;;;;1.05;0.90;;;13.90;74.70;;;;;;5096281;28;20085;-44
2020/12/15 01:43:19;;;;;;;0.98;0.90;;;13.90;74.70;;;;;;5094238;28;20028;-44
2020/12/15 01:45:45;;;;;;;0.80;0.80;;;13.90;74.80;;;;;;5092634;28;20054;-44
2020/12/15 01:48:11;;;;;;;0.95;0.80;;;13.90;74.80;;;;;;5094227;28;20051;-44
2020/12/15 01:50:38;;;;;;;1.67;0.95;;;13.90;74.90;;;;;;5074668;28;20855;-44
2020/12/15 01:53:10;;;;;;;2.35;0.93;;;13.80;74.90;;;;;;5075476;28;20029;-43
2020/12/15 01:55:37;;;;;;;0.80;0.80;;;13.80;74.80;;;;;;5095005;28;20566;-45
2020/12/15 01:58:03;;;;;;;;;;;13.80;74.90;;;;;;5096280;28;20107;-45
2020/12/15 02:00:30;;;;;;;0.90;0.90;;;13.80;74.90;;;;;;5094627;28;19914;-44
2020/12/15 02:02:56;;;;;;;1.20;1.10;;;13.70;74.90;;;;;;5098132;28;20032;-45
2020/12/15 02:05:22;;;;;;;1.37;1.03;;;13.70;75.00;;;;;;5104698;28;20073;-44
2020/12/15 02:07:48;;;;;;;1.13;0.95;;;13.70;75.10;;;;;;5085978;28;20041;-43
2020/12/15 02:10:17;;;;;;;1.23;1.00;;;13.70;75.00;;;;;;5065991;28;20027;-43
2020/12/15 02:12:43;;;;;;;2.25;0.80;;;13.70;75.00;;;;;;5101556;28;20116;-44
2020/12/15 02:15:09;;;;;;;1.45;1.00;;;13.70;75.20;;;;;;5085993;28;20054;-44
2020/12/15 02:17:35;;;;;;;2.00;1.02;;;13.60;75.10;;;;;;5116290;28;20047;-43
2020/12/15 02:20:09;;;;;;;1.13;1.00;;;13.60;75.10;;;;;;5100853;27;20058;-44
2020/12/15 02:22:35;;;;;;;2.15;1.05;;;13.60;75.00;;;;;;5144929;27;20030;-44
2020/12/15 02:25:05;;;;;;;1.20;1.10;;;13.60;75.00;;;;;;5133610;27;20039;-45
2020/12/15 02:27:31;;;;;;;1.08;0.98;;;13.50;75.10;;;;;;5106424;28;20081;-44
2020/12/15 02:29:57;;;;;;;1.30;1.17;;;13.50;75.10;;;;;;5124423;28;20026;-44
2020/12/15 02:32:24;;;;;;;1.17;1.08;;;13.50;75.00;;;;;;5127333;27;20154;-44
2020/12/15 02:34:55;;;;;;;1.30;1.10;;;13.50;75.10;;;;;;5124377;27;20023;-45
2020/12/15 02:37:21;;;;;;;1.67;1.20;;;13.50;75.00;;;;;;5122791;27;20042;-44
2020/12/15 02:39:47;;;;;;;1.15;1.08;;;13.50;75.20;;;;;;5128117;27;20023;-44
2020/12/15 02:42:13;;;;;;;1.02;0.93;;;13.40;75.10;;;;;;5120073;27;20035;-45
2020/12/15 02:44:40;;;;;;;0.90;0.90;;;13.40;75.10;;;;;;5123941;27;20028;-44
2020/12/15 02:47:06;;;;;;;1.17;1.08;;;13.40;75.30;;;;;;5124520;27;20100;-44
2020/12/15 02:49:32;;;;;;;1.40;1.30;;;13.40;75.30;;;;;;5122047;27;20031;-45
2020/12/15 02:51:59;;;;;;;1.27;1.17;;;13.40;75.20;;;;;;5127741;27;20126;-45
2020/12/15 02:54:25;;;;;;;1.20;1.10;;;13.40;75.30;;;;;;5120382;27;20606;-44
2020/12/15 02:56:51;;;;;;;1.40;1.30;;;13.40;75.30;;;;;;5126139;27;20048;-44
2020/12/15 02:59:17;;;;;;;1.63;1.30;;;13.30;75.20;;;;;;5122857;27;20050;-45
2020/12/15 03:01:44;;;;;;;1.58;1.40;;;13.30;75.30;;;;;;5122593;27;20023;-44
2020/12/15 03:04:10;;;;;;;1.50;1.13;;;13.30;75.20;;;;;;5123686;28;20484;-43
2020/12/15 03:06:37;;;;;;;1.65;1.38;;;13.30;75.30;;;;;;5115269;28;20064;-44
2020/12/15 03:09:06;;;;;;;1.77;1.30;;;13.30;75.30;;;;;;5103361;28;20056;-44
2020/12/15 03:11:32;;;;;;;1.30;1.20;;;13.20;75.20;;;;;;5103420;28;20020;-44
2020/12/15 03:13:58;;;;;;;1.52;1.42;;;13.20;75.20;;;;;;5102933;28;20035;-44
2020/12/15 03:16:24;;;;;;;1.40;1.30;;;13.20;75.30;;;;;;5137962;27;20023;-44
2020/12/15 03:18:51;;;;;;;1.42;1.30;;;13.20;75.40;;;;;;5142511;27;20035;-44
2020/12/15 03:21:20;;;;;;;1.40;1.30;;;13.20;75.60;;;;;;5123540;28;20050;-44
2020/12/15 03:23:52;;;;;;;1.40;1.30;;;13.10;75.20;;;;;;5123409;28;20110;-44
2020/12/15 03:26:18;;;;;;;1.30;1.20;;;13.10;75.40;;;;;;5123303;28;20047;-44
2020/12/15 03:28:45;;;;;;;1.75;1.48;;;13.10;75.60;;;;;;5123502;28;20524;-44
2020/12/15 03:31:11;;;;;;;1.20;1.10;;;13.10;75.80;;;;;;5123327;28;20028;-44
2020/12/15 03:33:38;;;;;;;1.38;1.27;;;13.10;75.40;;;;;;5093101;27;20034;-44
2020/12/15 03:36:04;;;;;;;1.80;1.30;;;13.00;75.50;;;;;;5129112;27;20027;-44
2020/12/15 03:38:30;;;;;;;1.58;1.48;;;13.00;75.40;;;;;;5125557;27;20280;-44
2020/12/15 03:40:56;;;;;;;2.05;1.17;;;13.00;75.50;;;;;;5125569;27;20055;-45
2020/12/15 03:43:22;;;;;;;1.90;1.73;;;13.00;75.50;;;;;;5123171;27;20091;-44
2020/12/15 03:45:48;;;;;;;1.65;1.50;;;13.00;75.50;;;;;;5125056;28;20032;-45
2020/12/15 03:48:15;;;;;;;1.50;1.20;;;13.00;75.70;;;;;;5126426;28;20055;-44
2020/12/15 03:50:41;;;;;;;1.73;1.60;;;13.00;75.90;;;;;;5117328;28;20046;-44
2020/12/15 03:53:07;;;;;;;1.70;1.60;;;12.90;75.60;;;;;;5115586;28;20023;-44
2020/12/15 03:55:33;;;;;;;1.80;1.70;;;12.90;75.60;;;;;;5121261;28;20487;-44
2020/12/15 03:57:59;;;;;;;1.52;1.42;;;12.90;75.60;;;;;;5130478;28;20068;-44
2020/12/15 04:00:25;;;;;;;1.60;1.48;;;12.90;75.70;;;;;;5127362;28;20070;-44
2020/12/15 04:02:52;;;;;;;1.80;1.70;;;12.90;75.90;;;;;;5124935;28;20108;-44
2020/12/15 04:05:18;;;;;;;1.90;1.60;;;12.90;75.80;;;;;;5122882;28;20016;-44
2020/12/15 04:07:44;;;;;;;1.73;1.60;;;12.80;75.60;;;;;;5122928;28;20039;-44
2020/12/15 04:10:11;;;;;;;1.65;1.48;;;12.80;75.90;;;;;;5123265;28;20031;-44
2020/12/15 04:12:37;;;;;;;1.23;1.13;;;12.80;75.70;;;;;;5123166;28;20567;-44
2020/12/15 04:15:04;;;;;;;2.92;1.45;;;12.80;75.80;;;;;;5122841;28;20085;-44
2020/12/15 04:17:31;;;;;;;1.65;1.42;;;12.80;75.80;;;;;;5111283;28;20048;-44
2020/12/15 04:19:57;;;;;;;1.60;1.50;;;12.70;75.60;;;;;;5102445;28;20050;-44
2020/12/15 04:22:23;;;;;;;1.77;1.60;;;12.70;75.70;;;;;;5084071;28;20052;-44
2020/12/15 04:24:49;;;;;;;1.80;1.58;;;12.70;75.70;;;;;;5084333;28;20489;-44
2020/12/15 04:27:15;;;;;;;1.80;1.70;;;12.70;75.70;;;;;;5106563;28;20039;-44
2020/12/15 04:29:41;;;;;;;2.13;1.75;;;12.70;75.80;;;;;;5106651;28;20020;-45
2020/12/15 04:32:08;;;;;;;1.92;1.50;;;12.70;75.80;;;;;;5104420;28;20416;-44
2020/12/15 04:34:34;;;;;;;2.15;1.77;;;12.60;75.80;;;;;;5095305;28;20024;-45
2020/12/15 04:37:00;;;;;;;2.08;1.88;;;12.60;75.90;;;;;;5095661;28;20039;-43
2020/12/15 04:39:26;;;;;;;1.80;1.48;;;12.60;76.10;;;;;;5097905;28;20047;-44
2020/12/15 04:41:52;;;;;;;2.15;1.50;;;12.60;76.30;;;;;;5096848;28;20027;-44
2020/12/15 04:44:18;;;;;;;1.80;1.55;;;12.60;76.20;;;;;;5094787;28;20074;-44
2020/12/15 04:47:27;;;;;;;1.85;1.65;;;12.60;76.10;;;;;;5078056;28;20572;-44
2020/12/15 04:50:19;;;;;;;1.80;1.60;;;12.50;76.00;;;;;;5040600;28;20039;-44
2020/12/15 04:52:59;;;;;;;2.20;1.80;;;12.50;75.90;;;;;;5074296;28;20035;-44
2020/12/15 04:55:25;;;;;;;2.05;1.85;;;12.50;76.10;;;;;;5077194;28;20031;-43
2020/12/15 04:57:53;;;;;;;1.90;1.70;;;12.50;76.20;;;;;;5093929;28;21256;-42
2020/12/15 05:00:19;;;;;;;2.88;2.00;;;12.50;76.00;;;;;;5093489;28;20032;-44
2020/12/15 05:02:51;;;;;;;2.17;1.60;;;12.50;76.00;;;;;;5100330;28;20027;-43
2020/12/15 05:05:17;;;;;;;1.60;1.50;;;12.40;76.00;;;;;;5105829;28;20024;-44
2020/12/15 05:07:44;;;;;;;2.00;1.83;;;12.40;76.10;;;;;;5070558;28;20086;-46
2020/12/15 05:10:15;;;;;;;2.20;1.80;;;12.40;76.10;;;;;;5087401;28;20028;-44
2020/12/15 05:12:41;;;;;;;1.92;1.80;;;12.40;76.30;;;;;;5087485;28;20039;-44
2020/12/15 05:15:11;;;;;;;2.72;2.03;;;12.40;76.20;;;;;;5105720;28;20092;-44
2020/12/15 05:17:39;;;;;;;2.20;2.00;;;12.40;76.20;;;;;;5117532;28;20059;-46
2020/12/15 05:20:06;;;;;;;2.00;1.80;;;12.30;76.20;;;;;;5138100;27;20095;-44
2020/12/15 05:22:46;;;;;;;2.85;2.10;;;12.30;76.30;;;;;;5127983;27;20019;-44
2020/12/15 05:25:31;;;;;;;1.88;1.70;;;12.30;76.20;;;;;;5133826;27;20035;-44
2020/12/15 05:28:02;;;;;;;1.95;1.70;;;12.30;76.30;;;;;;5125614;28;20138;-44
2020/12/15 05:30:31;;;;;;;2.03;1.83;;;12.30;76.10;;;;;;5125948;28;20069;-44
2020/12/15 05:32:59;;;;;;;1.95;1.70;;;12.20;76.10;;;;;;5095224;28;20028;-44
2020/12/15 05:35:35;;;;;;;2.60;1.98;;;12.20;76.20;;;;;;5105339;28;20051;-44
2020/12/15 05:38:03;;;;;;;2.47;1.83;;;12.20;76.20;;;;;;5122985;28;20077;-45
2020/12/15 05:40:29;;;;;;;1.90;1.70;;;12.20;76.30;;;;;;5107446;28;20028;-44
2020/12/15 05:43:03;;;;;;;2.55;2.00;;;12.20;76.60;;;;;;5107497;28;20122;-44
2020/12/15 05:45:32;;;;;;;2.25;1.98;;;12.20;76.30;;;;;;5119296;28;20031;-44
2020/12/15 05:48:02;;;;;;;2.15;1.90;;;12.10;76.30;;;;;;5107822;28;20044;-44
2020/12/15 05:50:28;;;;;;;1.90;1.60;;;12.10;76.10;;;;;;5104973;28;20050;-44
2020/12/15 05:53:04;;;;;;;2.28;2.08;;;12.10;76.30;;;;;;5110458;27;20050;-44
2020/12/15 05:55:31;;;;;;;2.45;1.77;;;12.10;76.40;;;;;;5130455;27;20666;-44
2020/12/15 05:57:58;;;;;;;2.30;1.98;;;12.10;76.20;;;;;;5125050;28;20030;-44
2020/12/15 06:00:29;;;;;;;2.30;2.10;;;12.10;76.20;;;;;;5089970;28;20028;-43
2020/12/15 06:03:07;;;;;;;2.42;2.13;;;12.00;76.20;;;;;;5124442;27;20031;-44
2020/12/15 06:05:35;;;;;;;2.58;2.10;;;12.00;76.40;;;;;;5128971;27;20031;-44
2020/12/15 06:08:01;;;;;;;;;;;12.00;76.20;;;;;;5130829;27;20042;-44
2020/12/15 06:10:28;;;;;;;1.80;1.70;;;12.00;76.30;;;;;;5109161;27;19930;-44
2020/12/15 06:12:56;;;;;;;2.75;2.08;;;11.90;76.30;;;;;;5121242;27;20050;-44
2020/12/15 06:15:22;;;;;;;2.17;1.98;;;11.90;76.30;;;;;;5121924;27;20926;-43
2020/12/15 06:17:49;;;;;;;2.63;2.25;;;11.90;76.50;;;;;;5128206;27;20052;-43
2020/12/15 06:20:19;;;;;;;2.40;2.10;;;11.90;76.60;;;;;;5084581;27;20303;-44
2020/12/15 06:22:46;;;;;;;2.38;2.15;;;11.90;76.40;;;;;;5104178;27;20118;-44
2020/12/15 06:25:22;;;;;;;2.20;2.00;;;11.90;76.40;;;;;;5083023;27;20020;-43
2020/12/15 06:27:49;;;;;;;2.00;1.80;;;11.80;76.30;;;;;;5122315;27;20041;-43
2020/12/15 06:30:15;;;;;;;2.63;2.30;;;11.80;76.50;;;;;;5081018;28;20027;-43
2020/12/15 06:32:41;;;;;;;2.50;2.30;;;11.80;76.40;;;;;;5124230;27;20024;-43
2020/12/15 06:35:11;;;;;;;2.55;2.35;;;11.80;76.50;;;;;;5124378;28;20020;-44
2020/12/15 06:37:41;;;;;;;2.70;2.03;;;11.80;76.40;;;;;;5124310;28;20024;-43
2020/12/15 06:40:07;;;;;;;2.45;1.98;;;11.80;76.50;;;;;;5106846;28;20041;-43
2020/12/15 06:42:35;;;;;;;2.65;1.95;;;11.80;76.40;;;;;;5124330;28;20031;-43
2020/12/15 06:45:08;;;;;;;2.47;2.10;;;11.70;76.50;;;;;;5120019;28;20392;-44
2020/12/15 06:47:34;;;;;;;2.72;2.30;;;11.70;76.50;;;;;;5123628;28;20050;-43
2020/12/15 06:50:19;;;;;;;2.13;1.92;;;11.70;76.50;;;;;;5106123;28;20023;-43
2020/12/15 06:52:48;;;;;;;2.40;2.20;;;11.70;76.50;;;;;;5124408;28;20126;-43
2020/12/15 06:55:14;;;;;;;2.45;2.20;;;11.70;76.50;;;;;;5106311;28;20028;-43
2020/12/15 06:57:41;;;;;;;2.35;2.15;;;11.70;76.50;;;;;;5105713;28;20054;-43
2020/12/15 07:00:11;;;;;;;2.55;2.30;;;11.60;76.50;;;;;;5105770;28;20038;-43
2020/12/15 07:02:37;;;;;;;2.38;2.08;;;11.60;76.50;;;;;;5133621;27;20038;-43
2020/12/15 07:05:26;;;;;;;2.80;2.50;;;11.60;76.50;;;;;;5126046;27;20023;-45
2020/12/15 07:07:52;;;;;;;;;;;11.60;76.50;;;;;;5109063;28;20050;-43
2020/12/15 07:10:19;;;;;;;2.30;1.80;;;11.50;76.60;;;;;;5123837;28;20002;-43
2020/12/15 07:12:49;;;;;;;2.85;2.55;;;11.60;76.70;;;;;;5124012;28;20032;-44
2020/12/15 07:15:16;;;;;;;3.60;2.42;;;11.50;76.60;;;;;;5123729;28;20039;-43
2020/12/15 07:17:46;;;;;;;;;;;11.50;76.50;;;;;;5110694;28;20112;-43
2020/12/15 07:20:12;;;;;;;2.78;2.13;;;11.50;76.70;;;;;;5103128;28;19994;-43
2020/12/15 07:22:38;;;;;;;2.40;2.10;;;11.50;76.70;;;;;;5085359;28;20038;-43
2020/12/15 07:25:04;;;;;;;2.35;2.15;;;11.50;76.60;;;;;;5103244;28;20084;-43
2020/12/15 07:27:32;;;;;;;2.70;2.38;;;11.50;76.70;;;;;;5102930;28;20063;-43
2020/12/15 07:29:58;;;;;;;2.47;2.22;;;11.40;76.80;;;;;;5103226;28;20751;-43
2020/12/15 07:32:26;;;;;;;2.30;2.10;;;11.40;76.80;;;;;;5103304;28;20036;-43
2020/12/15 07:35:13;;;;;;;2.08;1.88;;;11.40;76.80;;;;;;5103187;28;20028;-44
2020/12/15 07:37:43;;;;;;;2.00;1.90;;;11.40;76.80;;;;;;5084882;28;20036;-43
2020/12/15 07:40:13;;;;;;;2.53;2.33;;;11.40;76.70;;;;;;5103133;28;20027;-44
2020/12/15 07:42:40;;;;;;;2.35;2.15;;;11.30;76.70;;;;;;5102198;28;20028;-43
2020/12/15 07:45:10;;;;;;;2.22;2.03;;;11.30;76.70;;;;;;5102996;28;20036;-44
2020/12/15 07:47:40;;;;;;;3.50;2.30;;;11.30;76.70;;;;;;5102584;28;20051;-43
2020/12/15 07:50:07;;;;;;;3.88;2.72;;;11.30;76.70;;;;;;5103148;28;20040;-43
2020/12/15 07:52:37;;;;;;;2.40;2.20;;;11.30;76.80;;;;;;5102663;28;20024;-43
2020/12/15 07:55:12;;;;;;;2.60;2.28;;;11.30;76.80;;;;;;5084681;28;20093;-44
2020/12/15 07:57:39;;;;;;;2.35;2.13;;;11.20;76.70;;;;;;5102982;28;20036;-44
2020/12/15 08:00:05;;;;;;;;;;;11.20;76.80;;;;;;5104346;28;20124;-43
2020/12/15 08:02:31;;;;;;;2.03;1.83;;;11.20;76.80;;;;;;5107271;28;19926;-43
2020/12/15 08:05:15;;;;;;;2.75;2.50;;;11.20;76.80;;;;;;5107183;28;20035;-44
2020/12/15 08:08:02;;;;;;;2.90;2.60;;;11.20;76.90;;;;;;5088681;28;20035;-44
2020/12/15 08:10:31;;;;;;;2.40;2.20;;;11.20;76.80;;;;;;5107118;28;20023;-43
2020/12/15 08:12:58;;;;;;;2.08;1.85;;;11.10;76.80;;;;;;5088807;28;20030;-45
2020/12/15 08:15:24;;;;;;;;;;;11.10;76.90;;;;;;5123065;28;20016;-44
2020/12/15 08:17:50;;;;;;;2.78;2.28;;;11.10;76.90;;;;;;5106747;28;20002;-44
2020/12/15 08:20:18;;;;;;;2.65;2.17;;;11.10;76.90;;;;;;5088375;28;20381;-44
2020/12/15 08:22:45;;;;;;;;;;;11.00;76.80;;;;;;5068737;28;20021;-43
2020/12/15 08:25:14;;;;;;;2.47;2.08;;;11.10;76.90;;;;;;5098581;28;19904;-43
2020/12/15 08:27:40;;;;;;;2.35;2.10;;;11.00;77.00;;;;;;5106664;28;20097;-44
2020/12/15 08:30:20;;;;;;;2.45;2.08;;;11.00;77.10;;;;;;5106377;28;20031;-43
2020/12/15 08:32:50;;;;;;;2.58;2.38;;;11.00;76.90;;;;;;5087986;28;20028;-44
2020/12/15 08:35:26;;;;;;;2.08;1.88;;;11.00;77.00;;;;;;5088166;28;20032;-43
2020/12/15 08:38:03;;;;;;;2.75;2.47;;;11.00;77.00;;;;;;5106367;28;20024;-43
2020/12/15 08:40:29;;;;;;;2.63;2.40;;;10.90;77.00;;;;;;5106402;28;20024;-44
2020/12/15 08:42:58;;;;;;;2.83;2.40;;;10.90;77.00;;;;;;5106157;28;20169;-43
2020/12/15 08:45:25;;;;;;;2.40;2.17;;;10.90;77.10;;;;;;5105974;28;20276;-43
2020/12/15 08:47:52;;;;;;;2.67;2.45;;;10.90;77.10;;;;;;5106145;28;20032;-45
2020/12/15 08:50:19;;;;;;;2.55;2.25;;;10.90;77.10;;;;;;5106346;28;20028;-43
2020/12/15 08:52:46;;;;;;;3.15;2.70;;;10.90;77.10;;;;;;5105868;28;20032;-44
2020/12/15 08:55:12;;;;;;;2.83;2.55;;;10.90;77.10;;;;;;5093409;28;20040;-43
2020/12/15 08:57:38;;;;;;;3.03;2.35;;;10.80;77.10;;;;;;5085497;28;20028;-43
2020/12/15 09:00:15;;;;;;;2.97;2.17;;;10.80;77.10;;;;;;5067701;28;20028;-44
2020/12/15 09:02:43;;;;;;;2.47;2.28;;;10.80;77.20;;;;;;5077564;28;20031;-43
2020/12/15 09:05:10;;;;;;;2.30;2.10;;;10.80;77.20;;;;;;5105725;28;20043;-44
2020/12/15 09:07:37;;;;;;;2.65;2.40;;;10.80;77.10;;;;;;5105700;28;20040;-43
2020/12/15 09:10:16;;;;;;;2.67;2.45;;;10.70;77.10;;;;;;5105909;28;20040;-43
2020/12/15 09:12:46;;;;;;;2.60;2.40;;;10.80;77.20;;;;;;5105468;28;20088;-44
2020/12/15 09:15:12;;;;;;;3.33;2.45;;;10.70;77.10;;;;;;5104846;28;20025;-43
2020/12/15 09:17:38;;;;;;;2.63;2.40;;;10.70;77.20;;;;;;5118096;28;20047;-44
2020/12/15 09:20:05;;;;;;;2.63;2.42;;;10.70;77.20;;;;;;5138127;27;20023;-43
2020/12/15 09:22:33;;;;;;;2.45;2.22;;;10.70;77.20;;;;;;5146656;27;20192;-44
2020/12/15 09:25:01;;;;;;;2.95;2.47;;;10.70;77.20;;;;;;5135312;27;20031;-44
2020/12/15 09:27:27;;;;;;;3.17;2.60;;;10.70;77.20;;;;;;5125801;28;20059;-43
2020/12/15 09:29:54;;;;;;;2.47;2.28;;;10.70;77.20;;;;;;5125640;28;20032;-44
2020/12/15 09:32:20;;;;;;;2.58;2.38;;;10.60;77.20;;;;;;5132920;27;20035;-43
2020/12/15 09:34:47;;;;;;;2.60;2.40;;;10.60;77.10;;;;;;5145834;27;20023;-43
2020/12/15 09:37:13;;;;;;;2.45;2.25;;;10.60;77.20;;;;;;5114425;28;20118;-48
2020/12/15 09:39:39;;;;;;;2.90;2.70;;;10.60;77.30;;;;;;5125481;28;20039;-43
2020/12/15 09:42:06;;;;;;;2.90;2.45;;;10.60;77.30;;;;;;5125606;28;20646;-43
2020/12/15 09:44:32;;;;;;;2.55;2.33;;;10.60;77.30;;;;;;5125249;28;20023;-43
2020/12/15 09:46:58;;;;;;;2.45;2.20;;;10.50;77.20;;;;;;5137695;27;20124;-43
2020/12/15 09:49:25;;;;;;;2.78;2.40;;;10.50;77.30;;;;;;5136406;27;20016;-43
2020/12/15 09:51:51;;;;;;;2.50;2.20;;;10.50;77.30;;;;;;5106929;28;20059;-43
2020/12/15 09:54:17;;;;;;;2.85;2.42;;;10.50;77.30;;;;;;5104506;28;20024;-43
2020/12/15 09:56:44;;;;;;;2.45;2.25;;;10.50;77.30;;;;;;5104990;28;20024;-43
2020/12/15 09:59:14;;;;;;;3.03;2.58;;;10.50;77.30;;;;;;5104834;28;20032;-43
2020/12/15 10:01:41;;;;;;;3.17;2.40;;;10.40;77.20;;;;;;5107809;27;20489;-43
2020/12/15 10:04:07;;;;;;;2.92;2.40;;;10.50;77.40;;;;;;5145586;27;20051;-44
2020/12/15 10:06:34;;;;;;;2.92;2.42;;;10.40;77.40;;;;;;5137513;27;20498;-43
2020/12/15 10:09:01;;;;;;;2.95;2.53;;;10.40;77.30;;;;;;5125108;28;20054;-44
2020/12/15 10:11:27;;;;;;;2.75;2.40;;;10.40;77.20;;;;;;5125019;28;20024;-43
2020/12/15 10:13:53;;;;;;;2.53;2.28;;;10.40;77.30;;;;;;5124584;28;20091;-43
2020/12/15 10:16:20;;;;;;;2.60;2.40;;;10.30;77.40;;;;;;5123405;28;20023;-44
2020/12/15 10:18:46;;;;;;;2.92;2.63;;;10.30;77.40;;;;;;5104588;28;20047;-43
2020/12/15 10:21:12;;;;;;;3.67;2.67;;;10.30;77.30;;;;;;5104258;28;20036;-43
2020/12/15 10:23:38;;;;;;;3.00;2.70;;;10.30;77.40;;;;;;5085211;28;20099;-43
2020/12/15 10:26:05;;;;;;;2.80;2.50;;;10.30;77.50;;;;;;5084099;28;20059;-43
2020/12/15 10:28:32;;;;;;;2.20;2.00;;;10.30;77.50;;;;;;5083986;28;20024;-44
2020/12/15 10:30:58;;;;;;;3.47;2.75;;;10.30;77.40;;;;;;5084064;28;20060;-43
2020/12/15 10:33:24;;;;;;;2.53;2.33;;;10.20;77.40;;;;;;5092971;28;20020;-43
2020/12/15 10:35:51;;;;;;;3.58;2.70;;;10.20;77.40;;;;;;5103779;28;20077;-44
2020/12/15 10:38:17;;;;;;;2.95;2.50;;;10.20;77.40;;;;;;5103973;28;20586;-43
2020/12/15 10:40:46;;;;;;;2.78;2.45;;;10.20;77.40;;;;;;5104062;28;20038;-44
2020/12/15 10:43:13;;;;;;;2.58;2.30;;;10.20;77.40;;;;;;5103638;28;20020;-44
2020/12/15 10:45:39;;;;;;;1.92;1.65;;;10.20;77.50;;;;;;5103613;28;20032;-43
2020/12/15 10:48:05;;;;;;;3.25;2.60;;;10.20;77.40;;;;;;5103822;28;20850;-43
2020/12/15 10:50:32;;;;;;;3.05;2.75;;;10.10;77.40;;;;;;5103915;28;20113;-44
2020/12/15 10:52:58;;;;;;;4.18;2.55;;;10.10;77.40;;;;;;5103621;28;20052;-43
2020/12/15 10:55:24;;;;;;;2.67;2.38;;;10.10;77.60;;;;;;5103367;28;20024;-44
2020/12/15 10:57:50;;;;;;;2.90;2.58;;;10.10;77.50;;;;;;5103782;28;20031;-43
2020/12/15 11:00:16;;;;;;;3.58;2.75;;;10.10;77.50;;;;;;5103621;28;20087;-43
2020/12/15 11:02:42;;;;;;;2.60;2.40;;;10.10;77.50;;;;;;5103587;28;20028;-43
2020/12/15 11:05:09;;;;;;;2.72;2.50;;;10.10;77.60;;;;;;5103131;28;20031;-43
2020/12/15 11:07:35;;;;;;;2.72;2.38;;;10.00;77.40;;;;;;5103510;28;20039;-43
2020/12/15 11:10:01;;;;;;;2.80;2.50;;;10.00;77.50;;;;;;5103490;28;20039;-43
2020/12/15 11:12:27;;;;;;;2.80;2.55;;;10.00;77.50;;;;;;5103355;28;20039;-42
2020/12/15 11:14:53;;;;;;;2.60;2.40;;;10.00;77.60;;;;;;5102925;28;20059;-43
2020/12/15 11:17:19;;;;;;;3.03;2.72;;;10.00;77.50;;;;;;5112800;28;20055;-43
2020/12/15 11:19:46;;;;;;;2.95;2.63;;;10.00;77.50;;;;;;5123512;28;20117;-43
2020/12/15 11:22:12;;;;;;;3.42;2.33;;;9.90;77.50;;;;;;5123470;28;20028;-43
2020/12/15 11:24:38;;;;;;;4.05;2.78;;;9.90;77.60;;;;;;5123388;28;20054;-43
2020/12/15 11:27:04;;;;;;;3.03;2.40;;;9.90;77.60;;;;;;5123421;28;20064;-43
2020/12/15 11:29:30;;;;;;;2.75;2.53;;;9.90;77.50;;;;;;5123438;28;20020;-43
2020/12/15 11:31:56;;;;;;;3.00;2.50;;;9.90;77.50;;;;;;5119724;28;20028;-43
2020/12/15 11:34:22;;;;;;;3.20;2.53;;;9.90;77.60;;;;;;5102794;28;20050;-43
2020/12/15 11:36:55;;;;;;;2.72;2.42;;;9.90;77.70;;;;;;5112875;28;20108;-43
2020/12/15 11:39:22;;;;;;;2.60;2.40;;;9.90;77.70;;;;;;5123579;28;20032;-43
2020/12/15 11:41:49;;;;;;;2.80;2.50;;;9.80;77.60;;;;;;5132813;27;20037;-43
2020/12/15 11:44:18;;;;;;;3.58;2.67;;;9.80;77.70;;;;;;5125883;27;20106;-43
2020/12/15 11:46:45;;;;;;;2.95;2.30;;;9.80;77.60;;;;;;5123384;28;20028;-43
2020/12/15 11:49:11;;;;;;;2.90;2.60;;;9.80;77.60;;;;;;5104938;28;20388;-44
2020/12/15 11:51:37;;;;;;;2.73;2.53;;;9.80;77.60;;;;;;5123253;28;20034;-43
2020/12/15 11:54:04;;;;;;;3.75;2.70;;;9.80;77.60;;;;;;5104652;28;20020;-43
2020/12/15 11:56:30;;;;;;;3.88;2.75;;;9.70;77.50;;;;;;5123336;28;20034;-43
2020/12/15 11:58:56;;;;;;;2.95;2.55;;;9.70;77.60;;;;;;5123288;28;20035;-43
2020/12/15 12:01:22;;;;;;;2.78;2.40;;;9.70;77.60;;;;;;5123148;28;20095;-42
2020/12/15 12:03:48;;;;;;;3.58;2.50;;;9.70;77.70;;;;;;5141709;28;20034;-43
2020/12/15 12:06:15;;;;;;;2.88;2.53;;;9.70;77.60;;;;;;5138522;28;20020;-43
2020/12/15 12:08:41;;;;;;;2.95;2.50;;;9.70;77.70;;;;;;5123178;28;20035;-43
2020/12/15 12:11:10;;;;;;;2.45;2.25;;;9.70;77.70;;;;;;5123053;28;20027;-43
2020/12/15 12:13:36;;;;;;;3.00;2.53;;;9.70;77.70;;;;;;5123294;28;20031;-43
2020/12/15 12:16:04;;;;;;;2.67;2.47;;;9.70;77.70;;;;;;5122759;28;20027;-43
2020/12/15 12:18:30;;;;;;;3.03;2.50;;;9.70;77.70;;;;;;5103118;28;20075;-43
2020/12/15 12:20:56;;;;;;;3.00;2.53;;;9.60;77.60;;;;;;5102485;28;20092;-43
2020/12/15 12:23:22;;;;;;;3.05;2.47;;;9.60;77.70;;;;;;5102555;28;20024;-43
2020/12/15 12:25:48;;;;;;;2.95;2.58;;;9.60;77.70;;;;;;5084544;28;20032;-43
2020/12/15 12:28:14;;;;;;;2.67;2.33;;;9.60;77.80;;;;;;5086970;28;20032;-42
2020/12/15 12:30:40;;;;;;;2.92;2.47;;;9.60;77.70;;;;;;5102210;28;20048;-43
2020/12/15 12:33:07;;;;;;;2.63;2.38;;;9.60;77.80;;;;;;5101606;28;20028;-42
2020/12/15 12:35:33;;;;;;;2.88;2.42;;;9.50;77.70;;;;;;5102302;28;20081;-44
2020/12/15 12:37:59;;;;;;;2.75;2.55;;;9.50;77.80;;;;;;5102354;28;20020;-42
2020/12/15 12:40:25;;;;;;;2.60;2.35;;;9.50;77.80;;;;;;5102202;28;20024;-43
2020/12/15 12:42:51;;;;;;;2.63;2.30;;;9.50;77.80;;;;;;5102267;28;20035;-43
2020/12/15 12:45:18;;;;;;;3.30;2.25;;;9.50;77.80;;;;;;5101930;28;20028;-43
2020/12/15 12:47:44;;;;;;;2.78;2.25;;;9.50;77.70;;;;;;5105716;28;20043;-43
2020/12/15 12:50:10;;;;;;;3.88;2.88;;;9.50;77.80;;;;;;5106231;28;20028;-43
2020/12/15 12:52:37;;;;;;;2.58;2.28;;;9.50;77.80;;;;;;5106140;28;20024;-43